createdAt,value
2019-04-05T01:08:37.825Z,6.40
2019-04-05T01:11:32.604Z,6.30
2019-04-05T01:14:07.740Z,6.30
2019-04-05T01:40:57.277Z,6.10
2019-04-05T01:46:24.556Z,6.10
2019-04-05T01:48:55.322Z,6.10
2019-04-05T03:11:15.050Z,5.70
2019-04-05T03:14:17.291Z,5.70
2019-04-05T03:16:54.560Z,5.70
2019-04-05T03:19:38.413Z,5.70
2019-04-05T03:22:13.222Z,5.60
2019-04-05T03:24:48.264Z,5.60
2019-04-05T03:27:25.216Z,5.70
2019-04-05T03:29:57.313Z,5.70
2019-04-05T03:32:28.042Z,5.70
2019-04-05T03:35:00.262Z,5.70
2019-04-05T03:37:30.599Z,5.70
2019-04-05T05:00:49.519Z,5.10
2019-04-05T05:03:29.525Z,5.10
2019-04-05T05:06:21.618Z,5.10
2019-04-05T05:26:49.386Z,5.10
2019-04-05T05:29:22.393Z,5.10
2019-04-05T05:32:16.864Z,5.10
2019-04-05T05:40:34.892Z,5.20
2019-04-05T05:46:49.386Z,5.30
2019-04-05T05:49:18.662Z,5.40
2019-04-05T05:51:55.353Z,5.40
2019-04-05T05:54:31.969Z,5.50
2019-04-05T05:57:06.092Z,5.50
2019-04-05T05:59:38.364Z,5.50
2019-04-05T06:02:19.477Z,5.60
2019-04-05T06:05:00.889Z,5.60
2019-04-05T06:07:41.465Z,5.70
2019-04-05T06:10:15.839Z,5.80
2019-04-05T06:13:00.006Z,5.80
2019-04-05T06:15:28.758Z,5.90
2019-04-05T06:18:05.018Z,6.00
2019-04-05T06:20:38.575Z,6.00
2019-04-05T06:23:13.364Z,6.00
2019-04-05T06:25:53.222Z,6.10
2019-04-05T06:28:31.774Z,6.10
2019-04-05T06:31:27.915Z,6.10
2019-04-05T06:34:08.333Z,6.10
2019-04-05T06:36:47.257Z,6.20
2019-04-05T06:39:26.098Z,6.30
2019-04-05T06:42:06.440Z,6.30
2019-04-05T06:44:41.796Z,6.40
2019-04-05T06:47:23.906Z,6.40
2019-04-05T06:50:00.626Z,6.50
2019-04-05T06:52:46.222Z,6.60
2019-04-05T06:55:23.057Z,6.70
2019-04-05T06:58:02.500Z,6.80
2019-04-05T07:00:56.790Z,6.90
2019-04-05T07:03:26.774Z,7.00
2019-04-05T07:06:00.525Z,7.00
2019-04-05T07:08:32.121Z,7.10
2019-04-05T07:11:30.455Z,7.20
2019-04-05T07:14:31.826Z,7.30
2019-04-05T07:17:16.953Z,7.30
2019-04-05T07:19:53.915Z,7.40
2019-04-05T07:22:43.234Z,7.50
2019-04-05T07:25:16.941Z,7.60
2019-04-05T07:27:58.728Z,7.60
2019-04-05T07:30:38.001Z,7.70
2019-04-05T07:33:14.367Z,7.70
2019-04-05T07:36:24.658Z,7.70
2019-04-05T07:39:01.750Z,7.70
2019-04-05T07:42:04.720Z,7.80
2019-04-05T07:44:38.887Z,7.90
2019-04-05T07:48:06.770Z,7.90
2019-04-05T07:55:04.506Z,8.00
2019-04-05T08:01:14.980Z,8.10
2019-04-05T08:04:00.683Z,8.20
2019-04-05T08:06:44.329Z,8.30
2019-04-05T08:09:54.326Z,8.30
2019-04-05T08:13:06.260Z,8.40
2019-04-05T08:15:35.927Z,8.50
2019-04-05T08:18:56.495Z,8.50
2019-04-05T08:21:39.745Z,8.60
2019-04-05T08:24:50.870Z,8.60
2019-04-05T08:27:26.929Z,8.70
2019-04-05T08:30:40.735Z,8.80
2019-04-05T08:33:31.399Z,8.80
2019-04-05T08:36:18.234Z,8.90
2019-04-05T08:39:03.652Z,9.00
2019-04-05T08:42:25.979Z,9.00
2019-04-05T08:45:07.174Z,9.10
2019-04-05T08:48:08.141Z,9.20
2019-04-05T08:51:13.566Z,9.20
2019-04-05T08:53:51.825Z,9.20
2019-04-05T09:02:11.171Z,9.30
2019-04-05T09:04:14.277Z,9.50
2019-04-05T09:07:59.898Z,9.50
2019-04-05T09:11:06.223Z,9.60
2019-04-05T09:14:01.461Z,9.70
2019-04-05T09:32:45.017Z,10.00
2019-04-05T09:40:10.653Z,10.10
2019-04-05T10:03:13.597Z,10.80
2019-04-05T10:06:54.946Z,10.90
2019-04-05T10:11:20.102Z,11.10
2019-04-05T10:32:17.454Z,11.90
2019-04-05T10:44:28.240Z,12.10
2019-04-05T10:47:06.837Z,12.40
2019-04-05T10:53:55.498Z,12.70
2019-04-05T10:56:33.688Z,12.80
2019-04-05T10:59:34.192Z,12.90
2019-04-05T11:02:31.286Z,12.90
2019-04-05T11:05:25.916Z,12.90
2019-04-05T11:07:53.871Z,13.00
2019-04-05T11:10:36.446Z,13.10
2019-04-05T11:13:40.161Z,13.30
2019-04-05T11:16:21.366Z,13.40
2019-04-05T11:18:52.736Z,13.50
2019-04-05T11:21:36.091Z,13.70
2019-04-05T11:24:57.186Z,13.80
2019-04-05T11:30:28.648Z,13.80
2019-04-05T11:33:10.507Z,13.90
2019-04-05T11:44:01.752Z,14.30
2019-04-05T11:47:33.595Z,14.20
2019-04-05T11:59:08.806Z,14.30
2019-04-05T12:19:20.387Z,14.70
2019-04-05T12:33:58.177Z,15.10
2019-04-05T12:37:29.376Z,14.80
2019-04-05T12:47:34.008Z,14.90
2019-04-05T12:54:25.893Z,15.10
2019-04-05T12:59:08.431Z,15.30
2019-04-05T13:05:20.373Z,14.80
2019-04-05T13:39:49.199Z,14.90
2019-04-05T13:44:34.504Z,14.60
2019-04-05T13:47:46.626Z,14.80
2019-04-05T13:51:07.233Z,14.90
2019-04-05T14:01:18.493Z,14.90
2019-04-05T14:07:39.412Z,14.70
2019-04-05T14:10:39.695Z,14.70
2019-04-05T14:13:50.616Z,14.80
2019-04-05T14:24:47.448Z,14.60
2019-04-05T14:27:18.994Z,14.40
2019-04-05T14:42:36.866Z,14.50
2019-04-05T14:45:14.345Z,14.80
2019-04-05T14:47:44.916Z,14.80
2019-04-05T14:50:58.567Z,14.80
2019-04-05T14:53:32.321Z,14.80
2019-04-05T14:56:39.331Z,14.70
2019-04-05T14:59:09.906Z,14.70
2019-04-05T15:01:51.693Z,14.60
2019-04-05T15:04:22.201Z,14.60
2019-04-05T15:07:20.461Z,14.70
2019-04-05T15:13:37.985Z,14.40
2019-04-05T15:21:30.997Z,14.30
2019-04-05T15:24:00.313Z,14.20
2019-04-05T15:26:29.592Z,14.20
2019-04-05T15:52:55.133Z,13.80
2019-04-05T15:55:24.070Z,13.80
2019-04-05T15:57:53.559Z,13.70
2019-04-05T16:00:44.255Z,13.70
2019-04-05T16:03:13.603Z,13.70
2019-04-05T16:05:43.180Z,13.60
2019-04-05T16:08:18.851Z,13.40
2019-04-05T16:10:55.760Z,13.40
2019-04-05T16:13:29.607Z,13.40
2019-04-05T16:16:16.101Z,13.40
2019-04-05T16:18:46.662Z,13.30
2019-04-05T16:21:16.149Z,13.30
2019-04-05T16:32:51.140Z,13.40
2019-04-05T16:35:23.851Z,13.30
2019-04-05T16:37:53.430Z,13.20
2019-04-05T16:40:23.038Z,13.10
2019-04-05T16:43:02.441Z,13.00
2019-04-05T16:46:30.512Z,12.90
2019-04-05T16:50:26.806Z,12.80
2019-04-05T17:16:45.721Z,12.00
2019-04-05T17:23:52.351Z,11.80
2019-04-05T17:27:20.994Z,11.70
2019-04-05T17:31:01.931Z,11.70
2019-04-05T17:34:22.458Z,11.60
2019-04-05T17:41:15.881Z,11.50
2019-04-05T17:48:09.567Z,11.30
2019-04-05T18:01:59.809Z,10.90
2019-04-05T18:04:49.052Z,10.90
2019-04-05T18:08:21.037Z,10.80
2019-04-05T18:25:46.045Z,10.60
2019-04-05T18:32:21.768Z,10.40
2019-04-05T18:35:51.250Z,10.40
2019-04-05T18:43:03.959Z,10.30
2019-04-05T18:52:35.242Z,10.20
2019-04-05T18:55:42.446Z,10.10
2019-04-05T18:58:09.262Z,10.10
2019-04-05T19:00:44.414Z,10.10
2019-04-05T19:03:28.274Z,10.10
2019-04-05T19:06:09.156Z,10.10
2019-04-05T19:10:16.206Z,10.10
2019-04-05T19:11:57.904Z,10.10
2019-04-05T19:18:27.428Z,10.10
2019-04-05T19:25:42.498Z,10.00
2019-04-05T19:49:27.643Z,10.10
2019-04-05T19:52:41.012Z,10.10
2019-04-05T19:55:08.648Z,10.10
2019-04-05T19:57:41.605Z,10.10
2019-04-05T20:00:18.766Z,10.10
2019-04-05T20:02:48.325Z,10.10
2019-04-05T20:05:19.595Z,10.10
2019-04-05T20:07:56.359Z,10.10
2019-04-05T20:10:31.722Z,10.10
2019-04-05T20:13:09.036Z,10.10
2019-04-05T20:15:50.002Z,10.10
2019-04-05T20:18:22.718Z,10.10
2019-04-05T20:20:53.683Z,10.10
2019-04-05T20:23:47.136Z,10.10
2019-04-05T20:26:17.088Z,10.10
2019-04-05T20:28:49.611Z,10.10
2019-04-05T20:31:28.553Z,10.10
2019-04-05T20:34:12.026Z,10.10
2019-04-05T20:36:49.699Z,10.10
2019-04-05T20:39:22.318Z,10.10
2019-04-05T20:41:54.891Z,10.10
2019-04-05T20:44:27.558Z,10.10
2019-04-05T20:47:02.673Z,10.10
2019-04-05T20:49:37.445Z,10.10
2019-04-05T20:52:08.271Z,10.20
2019-04-05T20:54:43.269Z,10.10
2019-04-05T20:57:16.952Z,10.10
2019-04-05T20:59:52.243Z,10.20
2019-04-05T21:02:29.436Z,10.20
2019-04-05T21:05:01.345Z,10.20
2019-04-05T21:07:33.924Z,10.30
2019-04-05T21:10:08.004Z,10.20
2019-04-05T21:12:37.697Z,10.20
2019-04-05T21:15:09.047Z,10.20
2019-04-05T21:17:40.247Z,10.20
2019-04-05T21:20:12.584Z,10.30
2019-04-05T21:22:42.043Z,10.30
2019-04-05T21:25:16.337Z,10.30
2019-04-05T21:27:52.936Z,10.30
2019-04-05T21:30:28.033Z,10.30
2019-04-05T21:33:11.569Z,10.30
2019-04-05T21:35:46.034Z,10.30
2019-04-05T21:38:16.143Z,10.30
2019-04-05T21:40:47.479Z,10.30
2019-04-05T21:43:17.101Z,10.30
2019-04-05T21:45:52.489Z,10.30
2019-04-05T21:48:24.442Z,10.30
2019-04-05T21:51:01.335Z,10.30
2019-04-05T21:53:37.002Z,10.30
2019-04-05T21:56:07.108Z,10.30
2019-04-05T21:58:39.573Z,10.30
2019-04-05T22:01:12.945Z,10.30
2019-04-05T22:04:03.725Z,10.30
2019-04-05T22:06:20.762Z,10.40
2019-04-05T22:08:50.727Z,10.40
2019-04-05T22:11:27.537Z,10.40
2019-04-05T22:13:57.908Z,10.40
2019-04-05T22:16:28.664Z,10.40
2019-04-05T22:19:08.753Z,10.30
2019-04-05T22:21:47.774Z,10.30
2019-04-05T22:24:19.257Z,10.30
2019-04-05T22:26:59.561Z,10.30
2019-04-05T22:29:26.515Z,10.40
2019-04-05T22:32:04.161Z,10.40
2019-04-05T22:34:33.462Z,10.40
2019-04-05T22:37:06.461Z,10.50
2019-04-05T22:39:35.916Z,10.50
2019-04-05T22:42:13.078Z,10.50
2019-04-05T22:44:43.184Z,10.50
2019-04-05T22:47:16.987Z,10.50
2019-04-05T22:49:52.312Z,10.50
2019-04-05T22:52:29.572Z,10.50
2019-04-05T22:55:11.465Z,10.50
2019-04-05T22:57:41.241Z,10.50
2019-04-05T23:00:16.568Z,10.50
2019-04-05T23:02:55.481Z,10.50
2019-04-05T23:06:05.204Z,10.50
2019-04-05T23:08:43.190Z,10.50
2019-04-05T23:11:16.393Z,10.50
2019-04-05T23:13:48.741Z,10.50
2019-04-05T23:16:24.694Z,10.40
2019-04-05T23:19:11.373Z,10.40
2019-04-05T23:21:45.745Z,10.40
2019-04-05T23:24:19.498Z,10.40
2019-04-05T23:26:52.545Z,10.40
2019-04-05T23:29:23.470Z,10.40
2019-04-05T23:31:56.748Z,10.40
2019-04-05T23:34:33.885Z,10.40
2019-04-05T23:37:03.214Z,10.40
2019-04-05T23:39:35.347Z,10.30
2019-04-05T23:42:13.834Z,10.30
2019-04-05T23:44:43.256Z,10.30
2019-04-05T23:47:15.466Z,10.30
2019-04-05T23:49:48.382Z,10.30
2019-04-05T23:52:21.408Z,10.40
2019-04-05T23:54:51.327Z,10.40
2019-04-05T23:57:22.382Z,10.40
